Time;durP1;ratioP1;P1;durP2;ratioP2;P2;SDS_P1;SDS_P2;PMS_P1;PMS_P2;Temp;Humidity;BMP_temperature;BMP_pressure;BME280_temperature;BME280_humidity;BME280_pressure;Samples;Min_cycle;Max_cycle;Signal;HPM_P1;HPM_P2
2023/12/28 00:00:55;;;;;;;339.70;315.63;;;;;;;;;;10380282;28;20326;-79
2023/12/28 00:05:55;;;;;;;164.68;154.40;;;;;;;;;;10380578;28;20029;-80
2023/12/28 00:10:55;;;;;;;303.52;283.83;;;;;;;;;;10415461;28;20315;-80
2023/12/28 00:15:56;;;;;;;342.13;317.40;;;;;;;;;;10420577;28;20326;-79
2023/12/28 00:20:57;;;;;;;361.50;335.05;;;;;;;;;;10418949;28;20131;-77
2023/12/28 00:25:57;;;;;;;227.68;213.40;;;;;;;;;;10418942;28;20357;-77
2023/12/28 00:30:57;;;;;;;336.52;312.95;;;;;;;;;;10421333;28;20141;-79
2023/12/28 00:35:57;;;;;;;78.28;70.95;;;;;;;;;;10404280;28;20411;-78
2023/12/28 00:40:58;;;;;;;13.15;7.07;;;;;;;;;;10400984;28;20203;-80
2023/12/28 00:45:58;;;;;;;11.13;7.15;;;;;;;;;;10415101;28;20207;-81
2023/12/28 00:51:01;;;;;;;12.73;6.38;;;;;;;;;;10419016;28;20013;-80
2023/12/28 00:56:01;;;;;;;12.90;7.18;;;;;;;;;;10393511;28;20553;-78
2023/12/28 01:01:02;;;;;;;16.30;6.03;;;;;;;;;;10396288;28;20352;-79
2023/12/28 01:06:02;;;;;;;15.10;7.80;;;;;;;;;;10411586;28;20013;-80
2023/12/28 01:11:02;;;;;;;10.73;7.00;;;;;;;;;;10390518;28;20675;-80
2023/12/28 01:16:02;;;;;;;12.80;7.07;;;;;;;;;;10417846;28;20021;-78
2023/12/28 01:21:03;;;;;;;12.57;6.43;;;;;;;;;;10416764;28;20010;-79
2023/12/28 01:26:03;;;;;;;10.17;6.93;;;;;;;;;;10392587;28;20024;-78
2023/12/28 01:31:04;;;;;;;15.47;7.00;;;;;;;;;;10416939;28;20013;-79
2023/12/28 01:36:16;;;;;;;14.40;7.05;;;;;;;;;;10419514;28;20199;-79
2023/12/28 01:41:17;;;;;;;13.25;6.95;;;;;;;;;;10417120;28;20265;-79
2023/12/28 01:46:18;;;;;;;13.85;7.15;;;;;;;;;;10416248;28;20009;-78
2023/12/28 01:51:20;;;;;;;11.07;5.97;;;;;;;;;;10416583;28;20066;-80
2023/12/28 01:56:20;;;;;;;11.13;6.70;;;;;;;;;;10418711;28;20196;-80
2023/12/28 02:01:21;;;;;;;15.20;7.70;;;;;;;;;;10418107;28;20037;-79
2023/12/28 02:06:23;;;;;;;16.38;8.43;;;;;;;;;;10403412;28;20315;-80
2023/12/28 02:11:23;;;;;;;11.63;6.40;;;;;;;;;;10412779;28;20051;-80
2023/12/28 02:16:31;;;;;;;14.30;6.57;;;;;;;;;;10425667;28;20307;-79
2023/12/28 02:21:32;;;;;;;16.00;7.13;;;;;;;;;;10427744;28;20095;-80
2023/12/28 02:26:32;;;;;;;12.77;6.63;;;;;;;;;;10410619;28;20072;-80
2023/12/28 02:31:37;;;;;;;12.43;6.82;;;;;;;;;;10423706;28;20027;-80
2023/12/28 02:36:41;;;;;;;10.85;6.63;;;;;;;;;;10424409;28;20032;-80
2023/12/28 02:41:43;;;;;;;12.48;6.55;;;;;;;;;;10426175;28;20203;-80
2023/12/28 02:46:43;;;;;;;9.90;6.60;;;;;;;;;;10424462;28;20318;-79
2023/12/28 02:51:43;;;;;;;13.32;8.32;;;;;;;;;;10423098;28;20041;-81
2023/12/28 02:56:43;;;;;;;11.60;6.90;;;;;;;;;;10423155;28;20010;-79
2023/12/28 03:01:43;;;;;;;17.33;7.05;;;;;;;;;;10425077;28;20085;-79
2023/12/28 03:06:46;;;;;;;15.15;9.05;;;;;;;;;;10424699;28;20037;-80
2023/12/28 03:11:46;;;;;;;17.40;7.65;;;;;;;;;;10415299;28;20204;-81
2023/12/28 03:16:46;;;;;;;13.20;8.55;;;;;;;;;;10422472;28;20041;-79
2023/12/28 03:21:46;;;;;;;16.13;6.80;;;;;;;;;;10421166;28;20033;-79
2023/12/28 03:26:47;;;;;;;13.20;7.60;;;;;;;;;;10410880;28;20025;-80
2023/12/28 03:31:47;;;;;;;14.77;8.43;;;;;;;;;;10420953;28;20096;-79
2023/12/28 03:36:47;;;;;;;15.63;7.30;;;;;;;;;;10407741;28;20013;-79
2023/12/28 03:41:47;;;;;;;14.88;7.95;;;;;;;;;;10411339;28;20044;-78
2023/12/28 03:46:51;;;;;;;15.25;7.72;;;;;;;;;;10409166;28;20029;-79
2023/12/28 03:51:51;;;;;;;17.95;7.10;;;;;;;;;;10421787;28;20080;-80
2023/12/28 03:56:52;;;;;;;14.82;7.43;;;;;;;;;;10421234;28;20022;-79
2023/12/28 04:01:52;;;;;;;11.57;7.55;;;;;;;;;;10421443;28;20028;-79
2023/12/28 04:06:52;;;;;;;13.10;7.90;;;;;;;;;;10420144;28;20021;-81
2023/12/28 04:11:52;;;;;;;13.98;8.55;;;;;;;;;;10413505;28;20013;-80
2023/12/28 04:16:52;;;;;;;15.52;8.82;;;;;;;;;;10415777;28;20021;-78
2023/12/28 04:21:53;;;;;;;26.70;9.20;;;;;;;;;;10418095;28;20013;-80
2023/12/28 04:26:53;;;;;;;17.50;10.13;;;;;;;;;;10411288;28;20064;-77
2023/12/28 04:31:53;;;;;;;15.65;8.73;;;;;;;;;;10414629;28;20024;-78
2023/12/28 04:36:53;;;;;;;9.73;7.20;;;;;;;;;;10400558;28;20307;-80
2023/12/28 04:41:54;;;;;;;16.95;8.55;;;;;;;;;;10406710;28;20010;-78
2023/12/28 04:46:54;;;;;;;15.88;9.02;;;;;;;;;;10417714;28;20116;-79
2023/12/28 04:51:55;;;;;;;17.00;9.10;;;;;;;;;;10420844;28;20175;-80
2023/12/28 04:56:55;;;;;;;20.35;9.57;;;;;;;;;;10422447;28;20199;-79
2023/12/28 05:01:56;;;;;;;15.00;9.10;;;;;;;;;;10417723;28;20326;-79
2023/12/28 05:06:56;;;;;;;16.83;9.13;;;;;;;;;;10417043;28;20242;-79
2023/12/28 05:12:00;;;;;;;17.65;9.77;;;;;;;;;;10399514;28;20032;-77
2023/12/28 05:17:00;;;;;;;21.33;10.93;;;;;;;;;;10400042;28;20353;-77
2023/12/28 05:22:03;;;;;;;15.75;10.88;;;;;;;;;;10396148;28;20251;-78
2023/12/28 05:27:04;;;;;;;19.05;9.40;;;;;;;;;;10384744;28;20029;-78
2023/12/28 05:32:04;;;;;;;25.80;11.33;;;;;;;;;;10392271;28;20067;-78
2023/12/28 05:37:05;;;;;;;8.50;6.55;;;;;;;;;;10409976;28;20017;-79
2023/12/28 05:42:05;;;;;;;11.00;6.45;;;;;;;;;;10394758;28;20176;-78
2023/12/28 05:47:05;;;;;;;12.83;5.50;;;;;;;;;;10373936;28;20339;-79
2023/12/28 05:52:07;;;;;;;12.60;6.00;;;;;;;;;;10404675;28;20360;-78
2023/12/28 05:57:07;;;;;;;11.52;6.93;;;;;;;;;;10419262;28;20321;-77
2023/12/28 06:02:07;;;;;;;14.45;8.18;;;;;;;;;;10407795;28;20039;-78
2023/12/28 06:07:07;;;;;;;14.68;9.00;;;;;;;;;;10413098;28;20083;-76
2023/12/28 06:12:08;;;;;;;12.73;6.82;;;;;;;;;;10394797;28;20032;-77
2023/12/28 06:17:09;;;;;;;11.52;6.65;;;;;;;;;;10412598;28;20033;-79
2023/12/28 06:22:09;;;;;;;10.18;6.82;;;;;;;;;;10410825;28;20318;-77
2023/12/28 06:27:09;;;;;;;11.20;6.85;;;;;;;;;;10412144;28;20021;-77
2023/12/28 06:32:10;;;;;;;10.85;7.75;;;;;;;;;;10411608;28;20335;-77
2023/12/28 06:37:10;;;;;;;17.40;7.88;;;;;;;;;;10396510;28;20021;-77
2023/12/28 06:42:10;;;;;;;12.57;6.20;;;;;;;;;;10414933;28;20250;-78
2023/12/28 06:47:10;;;;;;;16.92;6.82;;;;;;;;;;10414005;28;20017;-77
2023/12/28 06:52:10;;;;;;;14.15;7.05;;;;;;;;;;10396814;28;20025;-78
2023/12/28 06:57:11;;;;;;;16.50;7.95;;;;;;;;;;10419804;28;20029;-77
2023/12/28 07:02:11;;;;;;;17.80;7.93;;;;;;;;;;10421833;28;20070;-76
2023/12/28 07:07:11;;;;;;;16.85;9.52;;;;;;;;;;10421816;28;20232;-78
2023/12/28 07:12:12;;;;;;;17.73;10.77;;;;;;;;;;10423537;28;20238;-77
2023/12/28 07:17:17;;;;;;;26.98;13.93;;;;;;;;;;10422192;28;20013;-77
2023/12/28 07:22:18;;;;;;;19.45;11.25;;;;;;;;;;10428616;28;20173;-78
2023/12/28 07:27:18;;;;;;;28.45;14.20;;;;;;;;;;10420881;28;20327;-78
2023/12/28 07:32:20;;;;;;;19.38;10.43;;;;;;;;;;10419540;28;20032;-78
2023/12/28 07:37:20;;;;;;;15.13;6.60;;;;;;;;;;10424350;28;20100;-77
2023/12/28 07:42:20;;;;;;;15.82;8.65;;;;;;;;;;10420411;28;20021;-77
2023/12/28 07:47:21;;;;;;;13.77;8.70;;;;;;;;;;10419696;28;20241;-78
2023/12/28 07:52:21;;;;;;;12.23;7.07;;;;;;;;;;10406212;28;20013;-77
2023/12/28 07:57:21;;;;;;;19.15;9.10;;;;;;;;;;10418374;28;20018;-78
2023/12/28 08:02:21;;;;;;;26.23;15.10;;;;;;;;;;10381071;28;20029;-77
2023/12/28 08:07:22;;;;;;;34.95;17.10;;;;;;;;;;10418755;28;20507;-79
2023/12/28 08:12:24;;;;;;;28.55;16.23;;;;;;;;;;10418989;28;20230;-78
2023/12/28 08:17:24;;;;;;;28.33;16.75;;;;;;;;;;10400878;28;20345;-77
2023/12/28 08:22:24;;;;;;;27.42;16.45;;;;;;;;;;10403531;28;20092;-78
2023/12/28 08:27:24;;;;;;;34.42;18.77;;;;;;;;;;10419853;28;20037;-78
2023/12/28 08:32:25;;;;;;;36.78;21.27;;;;;;;;;;10417447;28;20029;-78
2023/12/28 08:37:25;;;;;;;39.13;20.15;;;;;;;;;;10417785;28;20013;-78
2023/12/28 08:42:25;;;;;;;35.35;19.92;;;;;;;;;;10417296;28;20308;-78
2023/12/28 08:47:25;;;;;;;34.47;18.48;;;;;;;;;;10420435;28;20325;-78
2023/12/28 08:52:26;;;;;;;31.85;18.20;;;;;;;;;;10398519;28;20033;-78
2023/12/28 08:57:26;;;;;;;28.17;15.48;;;;;;;;;;10403635;28;20330;-77
2023/12/28 09:02:27;;;;;;;35.05;17.42;;;;;;;;;;10406719;28;20224;-77
2023/12/28 09:07:28;;;;;;;27.38;15.30;;;;;;;;;;10397139;28;20100;-78
2023/12/28 09:12:28;;;;;;;38.35;17.48;;;;;;;;;;10408554;28;20061;-78
2023/12/28 09:17:28;;;;;;;32.35;16.23;;;;;;;;;;10412584;28;20048;-77
2023/12/28 09:22:28;;;;;;;33.58;16.05;;;;;;;;;;10417374;28;20238;-77
2023/12/28 09:27:29;;;;;;;37.05;18.63;;;;;;;;;;10403396;28;20133;-78
2023/12/28 09:32:29;;;;;;;48.53;18.37;;;;;;;;;;10388011;28;20031;-80
2023/12/28 09:37:29;;;;;;;41.60;18.40;;;;;;;;;;10384686;28;20013;-77
2023/12/28 09:42:32;;;;;;;33.55;19.45;;;;;;;;;;10372025;28;20247;-78
2023/12/28 09:47:33;;;;;;;39.33;20.35;;;;;;;;;;10382908;28;20021;-78
2023/12/28 09:52:33;;;;;;;41.65;19.42;;;;;;;;;;10384997;28;20021;-78
2023/12/28 09:57:34;;;;;;;39.15;20.33;;;;;;;;;;10398335;28;20244;-78
2023/12/28 10:02:35;;;;;;;35.10;19.08;;;;;;;;;;10390062;28;20246;-78
2023/12/28 10:07:40;;;;;;;32.58;16.92;;;;;;;;;;10395239;28;20045;-78
2023/12/28 10:12:40;;;;;;;30.27;16.23;;;;;;;;;;10407377;28;20033;-78
2023/12/28 10:17:40;;;;;;;34.33;21.17;;;;;;;;;;10409332;28;20081;-79
2023/12/28 10:22:41;;;;;;;93.90;86.50;;;;;;;;;;10409441;28;20541;-79
2023/12/28 10:27:42;;;;;;;30.43;16.90;;;;;;;;;;10406052;28;20071;-78
2023/12/28 10:32:42;;;;;;;29.58;15.13;;;;;;;;;;10383204;28;20160;-78
2023/12/28 10:37:43;;;;;;;33.33;17.17;;;;;;;;;;10390126;28;20387;-78
2023/12/28 10:42:51;;;;;;;32.13;16.45;;;;;;;;;;10373219;28;20025;-80
2023/12/28 10:48:12;;;;;;;36.70;14.85;;;;;;;;;;10384459;28;20092;-78
2023/12/28 10:53:18;;;;;;;28.60;14.57;;;;;;;;;;10369552;28;20026;-80
2023/12/28 10:58:23;;;;;;;33.38;14.45;;;;;;;;;;10369003;28;20375;-78
2023/12/28 11:03:30;;;;;;;34.05;15.63;;;;;;;;;;10377987;28;20394;-78
2023/12/28 11:08:34;;;;;;;44.42;19.50;;;;;;;;;;10390591;28;20067;-80
2023/12/28 11:13:35;;;;;;;39.30;20.45;;;;;;;;;;10385168;28;20079;-78
2023/12/28 11:18:35;;;;;;;44.10;20.63;;;;;;;;;;10385965;28;20092;-79
2023/12/28 11:23:36;;;;;;;37.33;19.83;;;;;;;;;;10382482;28;20304;-79
2023/12/28 11:28:36;;;;;;;44.95;20.02;;;;;;;;;;10389086;28;20099;-78
2023/12/28 11:33:44;;;;;;;44.70;19.58;;;;;;;;;;10391343;28;20322;-79
2023/12/28 11:38:44;;;;;;;106.82;97.50;;;;;;;;;;10383827;28;20025;-79
2023/12/28 11:43:51;;;;;;;99.60;91.05;;;;;;;;;;10389561;28;20393;-78
2023/12/28 11:48:51;;;;;;;99.43;91.50;;;;;;;;;;10386194;28;20032;-79
2023/12/28 11:53:51;;;;;;;41.35;19.75;;;;;;;;;;10387119;28;20023;-79
2023/12/28 11:58:52;;;;;;;324.70;298.20;;;;;;;;;;10387175;28;20017;-79
2023/12/28 12:03:53;;;;;;;384.88;352.08;;;;;;;;;;10382708;28;20032;-79
2023/12/28 12:08:53;;;;;;;601.53;555.70;;;;;;;;;;10387031;28;20037;-79
2023/12/28 12:13:55;;;;;;;1144.38;999.90;;;;;;;;;;10384590;28;20013;-78
2023/12/28 12:18:56;;;;;;;1018.70;937.72;;;;;;;;;;10364111;28;20014;-80
2023/12/28 12:23:56;;;;;;;470.67;439.83;;;;;;;;;;10382849;28;20416;-80
2023/12/28 12:28:57;;;;;;;991.75;914.88;;;;;;;;;;10371973;28;20239;-78
2023/12/28 12:33:57;;;;;;;860.53;797.17;;;;;;;;;;10387679;28;20235;-79
2023/12/28 12:38:57;;;;;;;909.53;842.40;;;;;;;;;;10369999;28;20315;-80
2023/12/28 12:43:59;;;;;;;896.88;826.13;;;;;;;;;;10381565;28;20028;-79
2023/12/28 12:49:02;;;;;;;907.15;838.67;;;;;;;;;;10373582;28;20017;-80
2023/12/28 12:54:02;;;;;;;859.28;793.80;;;;;;;;;;10361095;28;20025;-79
2023/12/28 12:59:03;;;;;;;884.53;814.97;;;;;;;;;;10391549;28;20317;-79
2023/12/28 13:04:03;;;;;;;861.57;795.37;;;;;;;;;;10410156;28;20033;-79
2023/12/28 13:09:06;;;;;;;821.13;760.30;;;;;;;;;;10408887;28;20481;-79
2023/12/28 13:14:06;;;;;;;513.80;480.75;;;;;;;;;;10396910;28;20025;-79
2023/12/28 13:19:06;;;;;;;502.80;470.45;;;;;;;;;;10406488;28;20315;-79
2023/12/28 13:24:07;;;;;;;666.90;620.70;;;;;;;;;;10409120;28;20221;-79
2023/12/28 13:29:07;;;;;;;653.25;608.83;;;;;;;;;;10409228;28;20049;-78
2023/12/28 13:34:07;;;;;;;887.08;815.58;;;;;;;;;;10407865;28;20013;-79
2023/12/28 13:39:11;;;;;;;494.52;462.90;;;;;;;;;;10408580;28;20018;-79
2023/12/28 13:44:12;;;;;;;506.92;473.70;;;;;;;;;;10390819;28;20307;-77
2023/12/28 13:49:12;;;;;;;886.08;811.53;;;;;;;;;;10392189;28;20093;-79
2023/12/28 13:54:12;;;;;;;634.47;590.25;;;;;;;;;;10396909;28;20185;-79
2023/12/28 13:59:13;;;;;;;651.78;607.50;;;;;;;;;;10401593;28;20362;-79
2023/12/28 14:04:15;;;;;;;691.23;641.93;;;;;;;;;;10405801;28;20333;-78
2023/12/28 14:09:19;;;;;;;690.20;641.38;;;;;;;;;;10384309;28;20311;-79
2023/12/28 14:14:20;;;;;;;682.03;634.95;;;;;;;;;;10407507;28;20017;-79
2023/12/28 14:19:21;;;;;;;719.47;667.80;;;;;;;;;;10407493;28;20076;-78
2023/12/28 14:24:21;;;;;;;774.20;717.60;;;;;;;;;;10407074;28;20207;-79
2023/12/28 14:29:22;;;;;;;735.10;680.53;;;;;;;;;;10407110;28;20048;-80
2023/12/28 14:34:23;;;;;;;712.55;659.92;;;;;;;;;;10383442;28;20017;-79
2023/12/28 14:39:23;;;;;;;767.65;711.95;;;;;;;;;;10392198;28;20230;-78
2023/12/28 14:44:23;;;;;;;763.10;706.05;;;;;;;;;;10373189;28;20025;-80
2023/12/28 14:49:23;;;;;;;818.55;752.70;;;;;;;;;;10407672;28;20025;-80
2023/12/28 14:54:24;;;;;;;775.67;710.85;;;;;;;;;;10388403;28;20365;-79
2023/12/28 14:59:24;;;;;;;797.17;726.67;;;;;;;;;;10407168;28;20083;-78
2023/12/28 15:04:24;;;;;;;795.92;728.95;;;;;;;;;;10407485;28;20342;-78
2023/12/28 15:09:24;;;;;;;787.28;713.30;;;;;;;;;;10407391;28;20296;-79
2023/12/28 15:14:25;;;;;;;693.15;634.78;;;;;;;;;;10407504;28;20051;-78
2023/12/28 15:19:26;;;;;;;742.78;679.80;;;;;;;;;;10394320;28;20029;-78
2023/12/28 15:24:26;;;;;;;745.35;670.67;;;;;;;;;;10372647;28;20030;-78
2023/12/28 15:29:27;;;;;;;776.43;706.33;;;;;;;;;;10386635;28;20272;-79
2023/12/28 15:34:27;;;;;;;700.43;636.53;;;;;;;;;;10390143;28;20013;-79
2023/12/28 15:39:27;;;;;;;719.03;650.08;;;;;;;;;;10369031;28;20934;-77
2023/12/28 15:44:27;;;;;;;680.92;612.40;;;;;;;;;;10382859;28;20016;-77
2023/12/28 15:49:27;;;;;;;668.92;599.88;;;;;;;;;;10388216;28;20021;-76
2023/12/28 15:54:28;;;;;;;657.58;591.20;;;;;;;;;;10386401;28;20048;-75
2023/12/28 15:59:28;;;;;;;453.38;418.00;;;;;;;;;;10410500;28;20216;-78
2023/12/28 16:04:28;;;;;;;619.45;568.90;;;;;;;;;;10393047;28;20438;-84
2023/12/28 16:09:29;;;;;;;531.17;490.17;;;;;;;;;;10411647;28;20056;-83
2023/12/28 16:14:29;;;;;;;399.27;370.55;;;;;;;;;;10422540;28;20029;-83
2023/12/28 16:19:30;;;;;;;86.13;26.97;;;;;;;;;;10416124;28;20176;-81
2023/12/28 16:24:30;;;;;;;77.00;26.17;;;;;;;;;;10409936;28;20255;-81
2023/12/28 16:29:30;;;;;;;77.10;26.80;;;;;;;;;;10407513;28;20029;-80
2023/12/28 16:34:30;;;;;;;68.28;29.58;;;;;;;;;;10408306;28;20036;-79
2023/12/28 16:39:31;;;;;;;65.13;28.15;;;;;;;;;;10409324;28;20339;-78
2023/12/28 16:44:31;;;;;;;74.40;24.65;;;;;;;;;;10410621;28;20164;-79
2023/12/28 16:49:31;;;;;;;70.82;25.67;;;;;;;;;;10412220;28;20051;-78
2023/12/28 16:54:32;;;;;;;73.72;24.10;;;;;;;;;;10395129;28;20028;-80
2023/12/28 16:59:34;;;;;;;65.07;24.58;;;;;;;;;;10412706;28;20021;-79
2023/12/28 17:04:35;;;;;;;54.25;23.38;;;;;;;;;;10394185;28;20017;-77
2023/12/28 17:09:35;;;;;;;60.40;24.45;;;;;;;;;;10410111;28;20251;-79
2023/12/28 17:14:36;;;;;;;64.30;24.63;;;;;;;;;;10394295;28;20116;-79
2023/12/28 17:19:37;;;;;;;62.25;21.17;;;;;;;;;;10397518;28;20097;-79
2023/12/28 17:24:45;;;;;;;72.65;21.45;;;;;;;;;;10411805;28;20504;-81
2023/12/28 17:29:45;;;;;;;;;;;;;;;;;;10379009;28;20177;-83
2023/12/28 17:34:45;;;;;;;56.53;21.80;;;;;;;;;;10382645;28;19905;-80
2023/12/28 17:39:46;;;;;;;72.50;25.50;;;;;;;;;;10378770;28;20084;-82
2023/12/28 17:44:47;;;;;;;80.40;22.87;;;;;;;;;;10385658;28;20313;-80
2023/12/28 17:49:48;;;;;;;49.80;20.00;;;;;;;;;;10385161;28;20014;-80
2023/12/28 17:54:48;;;;;;;48.00;19.25;;;;;;;;;;10389257;28;20219;-79
2023/12/28 17:59:48;;;;;;;48.90;19.80;;;;;;;;;;10383235;28;20034;-80
2023/12/28 18:04:49;;;;;;;43.28;19.83;;;;;;;;;;10368451;28;20022;-81
2023/12/28 18:09:52;;;;;;;37.33;18.13;;;;;;;;;;10376997;28;20422;-81
2023/12/28 18:14:52;;;;;;;31.52;14.88;;;;;;;;;;10385444;28;20105;-79
2023/12/28 18:19:52;;;;;;;49.85;15.90;;;;;;;;;;10378437;28;20058;-87
2023/12/28 18:24:53;;;;;;;27.42;13.07;;;;;;;;;;10386810;28;20091;-81
2023/12/28 18:29:53;;;;;;;30.03;14.83;;;;;;;;;;10371853;28;20033;-84
2023/12/28 18:34:53;;;;;;;33.28;14.73;;;;;;;;;;10375294;28;20055;-84
2023/12/28 18:39:54;;;;;;;22.83;14.50;;;;;;;;;;10381988;28;20036;-78
2023/12/28 18:44:54;;;;;;;27.45;13.18;;;;;;;;;;10385154;28;20030;-82
2023/12/28 18:49:55;;;;;;;22.50;9.93;;;;;;;;;;10376212;28;20093;-81
2023/12/28 18:54:56;;;;;;;23.17;11.55;;;;;;;;;;10379679;28;20107;-79
2023/12/28 18:59:56;;;;;;;18.98;10.55;;;;;;;;;;10390303;28;20326;-80
2023/12/28 19:04:56;;;;;;;25.38;11.45;;;;;;;;;;10375347;28;20052;-82
2023/12/28 19:09:57;;;;;;;31.17;13.20;;;;;;;;;;10394479;28;20038;-79
2023/12/28 19:14:57;;;;;;;21.23;10.10;;;;;;;;;;10389527;28;20490;-77
2023/12/28 19:19:57;;;;;;;20.17;11.18;;;;;;;;;;10397326;28;20029;-78
2023/12/28 19:24:58;;;;;;;20.60;11.35;;;;;;;;;;10417814;28;20017;-83
2023/12/28 19:29:59;;;;;;;25.27;11.68;;;;;;;;;;10391020;28;20105;-77
2023/12/28 19:34:59;;;;;;;24.65;12.48;;;;;;;;;;10374894;28;20025;-79
2023/12/28 19:39:59;;;;;;;30.70;14.35;;;;;;;;;;10393448;28;20215;-78
2023/12/28 19:44:59;;;;;;;30.55;15.20;;;;;;;;;;10414301;28;20099;-77
2023/12/28 19:49:59;;;;;;;43.30;20.05;;;;;;;;;;10414705;28;20028;-79
2023/12/28 19:55:00;;;;;;;56.17;20.67;;;;;;;;;;10409357;28;20024;-79
2023/12/28 20:00:00;;;;;;;47.65;20.95;;;;;;;;;;10356070;28;20030;-78
2023/12/28 20:05:00;;;;;;;55.08;22.50;;;;;;;;;;10412956;28;20085;-78
2023/12/28 20:10:01;;;;;;;59.95;27.08;;;;;;;;;;10396653;28;20041;-76
2023/12/28 20:15:01;;;;;;;63.55;28.40;;;;;;;;;;10386411;28;20067;-78
2023/12/28 20:20:03;;;;;;;77.07;30.92;;;;;;;;;;10389100;28;20018;-78
2023/12/28 20:25:03;;;;;;;71.00;30.58;;;;;;;;;;10385973;28;20013;-77
2023/12/28 20:30:04;;;;;;;55.85;27.77;;;;;;;;;;10390979;28;20021;-78
2023/12/28 20:35:05;;;;;;;62.42;25.90;;;;;;;;;;10368316;28;20025;-79
2023/12/28 20:40:05;;;;;;;57.30;26.73;;;;;;;;;;10378925;28;20025;-79
2023/12/28 20:45:06;;;;;;;58.38;27.02;;;;;;;;;;10379522;28;20234;-78
2023/12/28 20:50:09;;;;;;;73.55;28.40;;;;;;;;;;10386162;28;20033;-77
2023/12/28 20:55:09;;;;;;;74.00;29.05;;;;;;;;;;10367805;28;20014;-78
2023/12/28 21:00:10;;;;;;;61.25;28.08;;;;;;;;;;10389451;28;20025;-79
2023/12/28 21:05:10;;;;;;;81.97;33.30;;;;;;;;;;10389094;28;20033;-80
2023/12/28 21:10:11;;;;;;;78.10;30.88;;;;;;;;;;10386184;28;20050;-80
2023/12/28 21:15:11;;;;;;;84.35;31.88;;;;;;;;;;10378256;28;20018;-80
2023/12/28 21:20:11;;;;;;;73.67;31.73;;;;;;;;;;10383961;28;20033;-79
2023/12/28 21:25:12;;;;;;;71.00;28.25;;;;;;;;;;10384377;28;20373;-77
2023/12/28 21:30:12;;;;;;;72.53;29.73;;;;;;;;;;10375054;28;20029;-78
2023/12/28 21:35:12;;;;;;;42.30;19.60;;;;;;;;;;10389474;28;20049;-78
2023/12/28 21:40:13;;;;;;;69.50;28.27;;;;;;;;;;10397785;28;20052;-80
2023/12/28 21:45:13;;;;;;;80.55;27.45;;;;;;;;;;10382708;28;20013;-78
2023/12/28 21:50:13;;;;;;;67.32;26.88;;;;;;;;;;10370505;28;20026;-77
2023/12/28 21:55:14;;;;;;;68.30;26.77;;;;;;;;;;10375046;28;20037;-77
2023/12/28 22:00:14;;;;;;;41.63;17.08;;;;;;;;;;10381034;28;20268;-77
2023/12/28 22:05:15;;;;;;;25.77;10.18;;;;;;;;;;10380695;28;20021;-80
2023/12/28 22:10:16;;;;;;;21.70;10.00;;;;;;;;;;10362225;28;20065;-79
2023/12/28 22:15:16;;;;;;;23.58;10.80;;;;;;;;;;10375626;28;20311;-79
2023/12/28 22:20:16;;;;;;;18.25;10.90;;;;;;;;;;10406023;28;20021;-79
2023/12/28 22:25:16;;;;;;;19.77;10.63;;;;;;;;;;10418303;28;20021;-77
2023/12/28 22:30:16;;;;;;;19.83;12.10;;;;;;;;;;10425775;28;20056;-75
2023/12/28 22:35:17;;;;;;;31.73;15.55;;;;;;;;;;10424939;28;20018;-77
2023/12/28 22:40:17;;;;;;;28.73;12.73;;;;;;;;;;10407684;28;20230;-77
2023/12/28 22:45:17;;;;;;;30.13;14.63;;;;;;;;;;10422265;28;20025;-76
2023/12/28 22:50:17;;;;;;;31.35;13.88;;;;;;;;;;10404344;28;20093;-77
2023/12/28 22:55:18;;;;;;;27.48;14.02;;;;;;;;;;10422483;28;20014;-77
2023/12/28 23:00:23;;;;;;;25.92;12.45;;;;;;;;;;10422596;28;20025;-77
2023/12/28 23:05:23;;;;;;;20.15;11.77;;;;;;;;;;10423113;28;20025;-77
2023/12/28 23:10:23;;;;;;;22.08;11.27;;;;;;;;;;10400253;28;20108;-77
2023/12/28 23:15:26;;;;;;;24.85;10.95;;;;;;;;;;10419464;28;20047;-77
2023/12/28 23:20:27;;;;;;;30.15;14.32;;;;;;;;;;10419516;28;20049;-77
2023/12/28 23:25:27;;;;;;;25.63;13.15;;;;;;;;;;10419273;28;20028;-76
2023/12/28 23:30:27;;;;;;;29.77;13.73;;;;;;;;;;10418563;28;20246;-76
2023/12/28 23:35:27;;;;;;;31.45;14.88;;;;;;;;;;10402960;28;20235;-78
2023/12/28 23:40:28;;;;;;;40.08;13.50;;;;;;;;;;10418309;28;20021;-77
2023/12/28 23:45:28;;;;;;;31.60;15.57;;;;;;;;;;10392476;28;20461;-77
2023/12/28 23:50:29;;;;;;;28.55;14.95;;;;;;;;;;10359160;23;20047;-79
2023/12/28 23:55:29;;;;;;;37.53;18.88;;;;;;;;;;10323070;28;20084;-75
